Time;durP1;ratioP1;P1;durP2;ratioP2;P2;SDS_P1;SDS_P2;PMS_P1;PMS_P2;Temp;Humidity;BMP_temperature;BMP_pressure;BME280_temperature;BME280_humidity;BME280_pressure;Samples;Min_cycle;Max_cycle;Signal;HPM_P1;HPM_P2
2022/06/04 00:01:30;;;;;;;8.45;4.10;;;;;;;16.92;61.80;146415.58;1793343;80;21102;-57
2022/06/04 00:03:58;;;;;;;7.65;4.28;;;;;;;16.92;61.92;146414.33;1793119;80;21063;-58
2022/06/04 00:06:25;;;;;;;5.53;4.00;;;;;;;16.91;62.40;146411.78;1792551;80;21082;-57
2022/06/04 00:08:54;;;;;;;5.40;4.10;;;;;;;16.91;62.17;146413.03;1791043;80;21016;-59
2022/06/04 00:16:51;;;;;;;5.90;3.87;;;;;;;16.92;62.24;146414.33;1790545;80;21036;-57
2022/06/04 00:19:20;;;;;;;5.55;3.83;;;;;;;16.92;61.82;146414.33;1793190;80;21059;-59
2022/06/04 00:21:48;;;;;;;6.83;4.17;;;;;;;16.93;61.85;146416.83;1792615;80;21030;-60
2022/06/04 00:24:15;;;;;;;6.05;4.28;;;;;;;16.91;62.11;146413.03;1792952;80;21067;-59
2022/06/04 00:26:42;;;;;;;8.58;4.10;;;;;;;16.91;62.08;146413.03;1791240;79;21027;-60
2022/06/04 00:29:09;;;;;;;8.38;5.40;;;;;;;16.90;61.81;146409.28;1788381;80;21019;-59
2022/06/04 00:31:36;;;;;;;8.48;5.85;;;;;;;16.90;62.40;146409.28;1788306;79;21568;-59
2022/06/04 00:34:04;;;;;;;9.58;4.90;;;;;;;16.87;62.97;146401.72;1788063;80;21109;-59
2022/06/04 00:36:33;;;;;;;6.17;4.60;;;;;;;16.84;62.78;146395.42;1775764;80;21070;-59
2022/06/04 00:39:00;;;;;;;6.50;4.10;;;;;;;16.82;62.69;146390.37;1787975;79;21486;-59
2022/06/04 00:41:38;;;;;;;5.70;3.40;;;;;;;16.81;62.71;146386.56;1783081;79;20984;-58
2022/06/04 00:44:19;;;;;;;4.50;3.15;;;;;;;16.78;62.55;146379.02;1790865;80;21145;-59
2022/06/04 00:47:14;;;;;;;5.40;4.00;;;;;;;16.76;62.56;146375.17;1793176;80;21035;-60
2022/06/04 00:49:42;;;;;;;5.78;3.65;;;;;;;16.76;62.56;146375.17;1792878;80;21489;-59
2022/06/04 00:52:13;;;;;;;6.67;4.30;;;;;;;16.74;62.33;146368.88;1793068;80;21083;-59
2022/06/04 00:54:42;;;;;;;5.70;3.57;;;;;;;16.69;62.45;146357.56;1793454;80;21474;-59
2022/06/04 00:57:34;;;;;;;7.78;3.95;;;;;;;16.70;62.67;146361.31;1793281;80;21679;-56
2022/06/04 01:00:10;;;;;;;;;;;;;;;16.66;62.56;146351.27;1764589;81;21063;-59
2022/06/04 01:03:04;;;;;;;5.37;3.80;;;;;;;16.67;62.40;146353.77;1762015;81;20419;-58
2022/06/04 01:06:11;;;;;;;6.28;4.25;;;;;;;16.66;62.49;146351.27;1761820;81;21031;-58
2022/06/04 01:08:53;;;;;;;5.90;4.05;;;;;;;16.63;63.21;146343.67;1765207;81;21098;-58
2022/06/04 01:11:31;;;;;;;5.05;3.60;;;;;;;16.59;62.88;146333.63;1766079;80;21042;-59
2022/06/04 01:14:22;;;;;;;5.25;3.00;;;;;;;16.59;62.34;146332.31;1779018;80;21019;-58
2022/06/04 01:17:06;;;;;;;7.85;3.92;;;;;;;16.58;62.00;146331.06;1795247;80;21008;-59
2022/06/04 01:20:07;;;;;;;6.33;4.00;;;;;;;16.60;62.37;146336.13;1796910;79;21509;-58
2022/06/04 01:23:19;;;;;;;6.58;3.37;;;;;;;16.54;62.17;146319.72;1796773;80;21477;-59
2022/06/04 01:26:20;;;;;;;7.00;3.85;;;;;;;16.54;62.17;146319.72;1674393;84;21079;-58
2022/06/04 01:28:56;;;;;;;6.30;4.30;;;;;;;16.55;62.44;146323.52;1685548;84;21645;-59
2022/06/04 01:31:34;;;;;;;5.85;4.15;;;;;;;16.54;62.98;146319.72;1777433;79;21047;-59
2022/06/04 01:34:05;;;;;;;7.90;4.22;;;;;;;16.51;63.17;146313.42;1796709;79;21039;-58
2022/06/04 01:36:40;;;;;;;6.28;4.37;;;;;;;16.46;63.45;146300.81;1796622;80;21046;-58
2022/06/04 01:39:15;;;;;;;6.20;4.50;;;;;;;16.42;63.38;146290.77;1788578;80;20972;-59
2022/06/04 01:41:47;;;;;;;5.87;4.30;;;;;;;16.41;63.57;146288.22;1796786;79;21069;-59
2022/06/04 01:44:36;;;;;;;7.87;5.70;;;;;;;16.38;63.48;146280.67;1796689;80;21047;-58
2022/06/04 01:47:05;;;;;;;14.90;4.75;;;;;;;16.36;63.16;146276.92;1765729;81;21019;-58
2022/06/04 01:49:49;;;;;;;5.83;4.17;;;;;;;16.35;63.19;146273.12;1765523;80;21489;-62
2022/06/04 01:52:29;;;;;;;8.35;3.62;;;;;;;16.33;63.55;146269.33;1796499;79;21084;-58
2022/06/04 01:55:15;;;;;;;4.83;3.83;;;;;;;16.28;63.54;146256.72;1796917;79;21019;-59
2022/06/04 01:57:53;;;;;;;7.53;3.90;;;;;;;16.20;63.48;146236.58;1797160;79;21565;-59
2022/06/04 02:00:36;;;;;;;5.00;3.55;;;;;;;16.20;63.48;146236.58;1796834;80;20984;-59
2022/06/04 02:03:11;;;;;;;5.00;2.87;;;;;;;16.16;63.54;146227.78;1793824;79;21066;-58
2022/06/04 02:05:49;;;;;;;5.45;3.80;;;;;;;16.13;63.55;146220.23;1792108;79;21007;-59
2022/06/04 02:08:22;;;;;;;7.08;3.35;;;;;;;16.13;63.55;146220.23;1791830;80;21054;-59
2022/06/04 02:11:00;;;;;;;6.15;3.35;;;;;;;16.14;63.39;146221.48;1791751;80;21015;-59
2022/06/04 02:13:28;;;;;;;4.87;3.40;;;;;;;16.14;63.39;146221.48;1789190;80;21027;-59
2022/06/04 02:16:03;;;;;;;9.85;3.35;;;;;;;16.11;63.45;146215.19;1788738;80;21559;-59
2022/06/04 02:18:30;;;;;;;7.20;3.50;;;;;;;16.10;63.65;146211.39;1789030;80;21512;-59
2022/06/04 02:20:58;;;;;;;5.40;3.52;;;;;;;16.07;63.73;146205.09;1787463;80;21516;-58
2022/06/04 02:23:25;;;;;;;5.95;3.55;;;;;;;16.05;63.85;146201.34;1782286;80;20996;-58
2022/06/04 02:25:52;;;;;;;4.65;3.12;;;;;;;16.05;63.81;146200.05;1764656;80;21484;-59
2022/06/04 02:28:20;;;;;;;5.08;3.10;;;;;;;16.06;63.74;146202.59;1790334;79;21011;-60
2022/06/04 02:31:10;;;;;;;5.00;3.40;;;;;;;16.07;63.62;146205.09;1791733;80;20999;-58
2022/06/04 02:33:52;;;;;;;4.83;3.00;;;;;;;16.08;63.53;146207.64;1785681;80;21161;-59
2022/06/04 02:36:28;;;;;;;4.78;3.27;;;;;;;16.08;63.52;146207.64;1768341;81;21056;-59
2022/06/04 02:39:31;;;;;;;14.40;3.85;;;;;;;16.11;63.07;146213.94;1772838;79;21055;-59
2022/06/04 02:42:21;;;;;;;4.65;3.33;;;;;;;16.12;63.16;146217.69;1778019;80;21012;-57
2022/06/04 02:44:55;;;;;;;;;;;;;;;16.13;62.87;146218.94;1786067;80;21103;-57
2022/06/04 02:47:34;;;;;;;5.35;3.08;;;;;;;16.16;62.89;146227.78;1783661;80;20096;-58
2022/06/04 02:50:08;;;;;;;5.78;2.85;;;;;;;16.18;62.74;146232.83;1779140;80;21020;-58
2022/06/04 02:52:37;;;;;;;5.03;2.70;;;;;;;16.20;62.75;146237.83;1783783;80;21031;-58
2022/06/04 02:55:26;;;;;;;5.12;2.85;;;;;;;16.23;62.69;146244.13;1788889;80;21514;-58
2022/06/04 02:57:59;;;;;;;3.70;2.42;;;;;;;16.23;62.69;146244.13;1782699;80;21570;-57
2022/06/04 03:00:27;;;;;;;;;;;;;;;16.26;62.38;146252.97;1753820;81;21476;-57
2022/06/04 03:02:55;;;;;;;5.20;2.83;;;;;;;16.26;62.28;146252.97;1779745;80;20116;-57
2022/06/04 03:05:27;;;;;;;5.15;2.92;;;;;;;16.32;61.48;146265.56;1784683;80;21581;-56
2022/06/04 03:08:02;;;;;;;4.55;2.95;;;;;;;16.32;61.48;146265.56;1788914;80;21071;-58
2022/06/04 03:10:33;;;;;;;4.90;2.70;;;;;;;16.37;61.67;146278.17;1796461;80;21040;-57
2022/06/04 03:13:00;;;;;;;7.83;3.95;;;;;;;16.41;61.12;146289.52;1796984;80;21063;-56
2022/06/04 03:15:28;;;;;;;5.08;3.00;;;;;;;16.46;61.46;146300.81;1796948;80;20999;-56
2022/06/04 03:17:55;;;;;;;7.17;3.20;;;;;;;16.49;61.29;146309.66;1795133;80;21007;-56
2022/06/04 03:20:25;;;;;;;6.00;3.33;;;;;;;16.51;61.38;146313.42;1772516;80;21086;-57
2022/06/04 03:22:52;;;;;;;5.28;3.08;;;;;;;16.52;61.62;146315.97;1797128;80;21066;-57
2022/06/04 03:25:20;;;;;;;5.25;3.70;;;;;;;16.52;61.62;146315.97;1796771;79;21063;-57
2022/06/04 03:27:48;;;;;;;4.78;2.98;;;;;;;16.53;61.36;146318.47;1796768;80;21015;-58
2022/06/04 03:30:16;;;;;;;5.55;3.62;;;;;;;16.54;60.98;146321.02;1796778;80;21032;-55
2022/06/04 03:32:44;;;;;;;4.78;3.30;;;;;;;16.53;60.88;146317.22;1791858;80;21059;-57
2022/06/04 03:35:14;;;;;;;5.60;3.00;;;;;;;16.58;61.55;146329.81;1791811;80;21035;-56
2022/06/04 03:37:41;;;;;;;4.95;2.95;;;;;;;16.59;61.11;146333.63;1791931;79;20999;-58
2022/06/04 03:40:09;;;;;;;5.10;3.12;;;;;;;16.59;61.11;146333.63;1784630;80;20967;-58
2022/06/04 03:42:36;;;;;;;5.62;3.12;;;;;;;16.65;60.91;146347.47;1764052;81;20997;-60
2022/06/04 03:45:05;;;;;;;4.37;2.52;;;;;;;16.68;60.88;146356.27;1764078;81;21041;-59
2022/06/04 03:47:38;;;;;;;4.08;2.62;;;;;;;16.71;60.58;146363.88;1764081;80;20989;-57
2022/06/04 03:50:12;;;;;;;5.35;2.95;;;;;;;16.79;60.57;146381.53;1794271;80;21019;-57
2022/06/04 03:52:41;;;;;;;4.20;2.60;;;;;;;16.79;60.57;146381.53;1790658;80;21003;-56
2022/06/04 03:55:11;;;;;;;7.35;2.62;;;;;;;16.81;60.88;146386.56;1786686;80;21024;-58
2022/06/04 03:57:52;;;;;;;3.87;2.65;;;;;;;16.87;60.34;146401.72;1797005;80;20980;-57
2022/06/04 04:00:35;;;;;;;5.08;2.90;;;;;;;16.91;60.12;146413.03;1796334;80;21035;-55
2022/06/04 04:03:13;;;;;;;4.85;2.75;;;;;;;16.95;59.71;146421.88;1792959;79;20996;-60
2022/06/04 04:05:48;;;;;;;5.25;2.20;;;;;;;17.01;59.87;146435.73;1796681;80;21067;-59
2022/06/04 04:08:18;;;;;;;4.83;3.15;;;;;;;17.06;59.98;146449.59;1793928;80;21059;-62
2022/06/04 04:10:46;;;;;;;3.98;2.65;;;;;;;17.12;60.01;146464.75;1791399;80;21532;-60
2022/06/04 04:13:16;;;;;;;4.35;2.65;;;;;;;17.19;59.84;146481.09;1791283;80;21016;-62
2022/06/04 04:15:45;;;;;;;4.50;2.40;;;;;;;17.25;59.30;146494.97;1791116;79;21024;-58
2022/06/04 04:18:12;;;;;;;8.13;3.02;;;;;;;17.32;59.36;146513.88;1791319;80;21541;-62
2022/06/04 04:20:45;;;;;;;6.03;2.70;;;;;;;17.40;59.21;146531.53;1791391;80;20976;-62
2022/06/04 04:23:11;;;;;;;4.83;3.00;;;;;;;17.45;59.16;146545.39;1795259;80;21003;-62
2022/06/04 04:25:40;;;;;;;6.65;2.90;;;;;;;17.50;58.87;146556.75;1798883;80;21076;-62
2022/06/04 04:28:09;;;;;;;4.20;2.77;;;;;;;17.54;58.66;146568.09;1767573;80;21065;-63
2022/06/04 04:30:37;;;;;;;7.53;3.15;;;;;;;17.61;58.57;146583.27;1767487;80;21025;-62
2022/06/04 04:33:06;;;;;;;6.05;2.92;;;;;;;17.65;58.38;146594.58;1767456;80;21034;-62
2022/06/04 04:35:35;;;;;;;4.53;2.20;;;;;;;17.74;58.46;146616.05;1767924;80;21017;-62
2022/06/04 04:38:04;;;;;;;4.15;2.65;;;;;;;17.83;57.33;146638.77;1767454;80;21037;-62
2022/06/04 04:40:32;;;;;;;4.15;2.77;;;;;;;17.87;57.46;146647.63;1792880;80;20984;-62
2022/06/04 04:42:59;;;;;;;7.10;2.58;;;;;;;17.94;57.99;146665.28;1798944;80;21039;-62
2022/06/04 04:45:27;;;;;;;4.08;2.05;;;;;;;18.04;57.69;146689.22;1785768;80;21507;-64
2022/06/04 04:47:56;;;;;;;3.67;2.10;;;;;;;18.14;57.00;146714.44;1783989;80;20979;-62
2022/06/04 04:50:31;;;;;;;3.67;2.20;;;;;;;18.22;57.44;146734.67;1786126;80;21011;-62
2022/06/04 04:52:59;;;;;;;4.95;2.33;;;;;;;18.34;56.79;146764.95;1798658;80;21061;-62
2022/06/04 04:55:26;;;;;;;5.70;2.40;;;;;;;18.43;56.98;146787.63;1798270;80;21026;-62
2022/06/04 04:57:53;;;;;;;4.62;2.40;;;;;;;18.50;56.57;146802.81;1799149;80;21477;-61
2022/06/04 05:00:20;;;;;;;7.33;2.30;;;;;;;18.55;56.25;146815.42;1799260;80;21495;-60
2022/06/04 05:02:48;;;;;;;4.20;2.55;;;;;;;18.59;56.20;146826.75;1799139;80;21500;-60
2022/06/04 05:05:14;;;;;;;3.15;2.00;;;;;;;18.69;56.20;146850.73;1799123;80;21493;-61
2022/06/04 05:07:43;;;;;;;5.75;2.30;;;;;;;18.75;55.27;146864.59;1793553;80;21060;-61
2022/06/04 05:10:11;;;;;;;3.30;2.12;;;;;;;18.78;55.09;146872.25;1761431;80;20982;-60
2022/06/04 05:12:38;;;;;;;9.33;2.90;;;;;;;18.83;55.93;146886.13;1767859;81;21088;-61
2022/06/04 05:15:07;;;;;;;3.85;2.22;;;;;;;18.94;55.71;146911.38;1771657;80;21019;-60
2022/06/04 05:17:34;;;;;;;3.22;1.95;;;;;;;19.01;53.85;146929.06;1793290;80;21072;-61
2022/06/04 05:20:03;;;;;;;3.58;2.00;;;;;;;19.01;53.42;146929.06;1784334;80;21013;-61
2022/06/04 05:22:30;;;;;;;3.70;2.10;;;;;;;19.04;54.00;146937.88;1783081;80;21015;-60
2022/06/04 05:24:58;;;;;;;3.55;2.22;;;;;;;19.15;52.99;146964.38;1793069;80;21054;-60
2022/06/04 05:27:25;;;;;;;4.92;1.80;;;;;;;19.21;53.41;146979.55;1793652;78;21003;-60
2022/06/04 05:29:52;;;;;;;6.65;2.25;;;;;;;19.25;53.16;146988.38;1786578;80;21075;-60
2022/06/04 05:32:19;;;;;;;4.72;2.37;;;;;;;19.32;52.38;147006.06;1777167;80;21011;-60
2022/06/04 05:34:46;;;;;;;8.48;2.50;;;;;;;19.34;52.19;147009.86;1779187;80;20945;-61
2022/06/04 05:37:13;;;;;;;3.50;2.08;;;;;;;19.42;52.77;147030.05;1783018;80;21165;-60
2022/06/04 05:39:40;;;;;;;3.20;2.00;;;;;;;19.52;51.90;147055.31;1778433;80;21141;-61
2022/06/04 05:42:10;;;;;;;3.47;1.70;;;;;;;19.60;51.95;147075.50;1772757;80;21164;-61
2022/06/04 05:44:37;;;;;;;3.72;2.00;;;;;;;19.67;52.13;147091.98;1772560;80;21002;-61
2022/06/04 05:47:05;;;;;;;3.02;1.85;;;;;;;19.83;52.20;147132.37;1790877;80;21019;-60
2022/06/04 05:49:32;;;;;;;3.08;1.65;;;;;;;20.13;51.45;147206.91;1792811;80;21026;-63
2022/06/04 05:51:59;;;;;;;6.53;1.80;;;;;;;21.14;48.83;147454.64;1784218;80;21497;-57
2022/06/04 05:54:25;;;;;;;3.22;1.62;;;;;;;22.73;45.20;147848.16;1783176;80;21004;-56
2022/06/04 05:56:52;;;;;;;2.12;1.37;;;;;;;24.36;42.04;148252.19;1782935;80;21040;-56
2022/06/04 05:59:23;;;;;;;3.52;1.70;;;;;;;25.36;39.32;148498.17;1783239;80;21048;-56
2022/06/04 06:01:50;;;;;;;3.90;1.60;;;;;;;26.28;37.79;148726.48;1783488;80;21024;-57
2022/06/04 06:04:20;;;;;;;2.95;1.30;;;;;;;27.39;35.65;149003.23;1792489;80;21039;-57
2022/06/04 06:06:50;;;;;;;4.95;1.30;;;;;;;28.15;34.33;149191.22;1793263;80;21016;-58
2022/06/04 06:09:21;;;;;;;2.10;1.12;;;;;;;28.36;33.45;149244.56;1795724;80;21501;-58
2022/06/04 06:11:49;;;;;;;3.15;1.45;;;;;;;28.56;32.81;149292.89;1797261;80;21007;-58
2022/06/04 06:14:17;;;;;;;2.83;1.45;;;;;;;28.77;32.55;149346.23;1796826;79;21023;-58
2022/06/04 06:16:49;;;;;;;2.10;1.17;;;;;;;28.69;32.23;149324.66;1792580;79;21626;-58
2022/06/04 06:19:19;;;;;;;2.80;1.12;;;;;;;29.02;32.50;149405.98;1792111;80;21598;-58
2022/06/04 06:21:46;;;;;;;1.50;0.90;;;;;;;30.06;30.20;149666.66;1792254;80;21654;-57
2022/06/04 06:24:16;;;;;;;1.80;1.00;;;;;;;29.62;29.70;149556.02;1792229;80;21520;-58
2022/06/04 06:26:49;;;;;;;3.52;1.25;;;;;;;29.28;29.99;149470.83;1792129;80;21516;-57
2022/06/04 06:29:17;;;;;;;2.37;1.20;;;;;;;29.50;30.00;149525.50;1791794;80;21114;-58
2022/06/04 06:31:45;;;;;;;6.17;1.20;;;;;;;29.74;29.70;149586.58;1791980;79;21011;-56
2022/06/04 06:34:13;;;;;;;1.55;0.85;;;;;;;30.20;29.54;149701.02;1784617;80;21028;-56
2022/06/04 06:36:39;;;;;;;2.20;1.07;;;;;;;30.44;28.74;149760.81;1776470;80;21072;-57
2022/06/04 06:39:08;;;;;;;1.57;0.85;;;;;;;31.03;27.12;149907.16;1795854;79;21004;-55
2022/06/04 06:41:35;;;;;;;2.20;1.00;;;;;;;30.67;27.44;149816.78;1792457;80;20980;-55
2022/06/04 06:44:03;;;;;;;3.12;1.10;;;;;;;30.43;27.53;149758.28;1791783;80;21019;-55
2022/06/04 06:46:38;;;;;;;2.47;1.10;;;;;;;30.48;27.73;149771.00;1792137;79;20991;-55
2022/06/04 06:49:17;;;;;;;2.65;1.02;;;;;;;31.36;27.19;149988.59;1792727;79;21028;-55
2022/06/04 06:51:49;;;;;;;2.62;1.05;;;;;;;32.03;25.62;150154.14;1796959;80;21038;-55
2022/06/04 06:54:20;;;;;;;1.87;1.10;;;;;;;32.62;25.52;150303.19;1796867;79;21023;-56
2022/06/04 06:56:50;;;;;;;2.30;1.35;;;;;;;34.22;23.54;150700.86;1796833;80;21513;-56
2022/06/04 06:59:23;;;;;;;2.80;1.22;;;;;;;33.19;24.64;150443.34;1797088;80;21015;-56
2022/06/04 07:01:51;;;;;;;3.55;1.27;;;;;;;32.43;25.12;150256.00;1797094;79;21090;-56
2022/06/04 07:04:21;;;;;;;2.05;1.07;;;;;;;32.60;25.45;150298.08;1796786;80;21000;-56
2022/06/04 07:06:51;;;;;;;2.73;1.10;;;;;;;33.04;24.91;150407.66;1778094;80;21047;-55
2022/06/04 07:09:25;;;;;;;2.90;1.07;;;;;;;31.71;24.50;150076.45;1761532;80;21688;-55
2022/06/04 07:11:52;;;;;;;4.22;1.25;;;;;;;29.51;27.66;149528.03;1792363;79;21532;-55
2022/06/04 07:14:24;;;;;;;2.35;1.10;;;;;;;28.38;29.36;149247.13;1783206;80;21005;-55
2022/06/04 07:16:54;;;;;;;2.50;1.07;;;;;;;28.45;29.67;149264.97;1786607;80;21959;-55
2022/06/04 07:19:27;;;;;;;6.92;1.80;;;;;;;28.83;29.26;149360.25;1787222;80;21090;-55
2022/06/04 07:21:56;;;;;;;2.95;1.40;;;;;;;29.00;28.83;149403.45;1793143;80;21032;-55
2022/06/04 07:24:24;;;;;;;5.42;1.55;;;;;;;29.04;28.04;149412.34;1793130;80;21027;-55
2022/06/04 07:26:52;;;;;;;3.55;1.62;;;;;;;29.36;28.05;149492.47;1783556;80;21013;-56
2022/06/04 07:29:20;;;;;;;6.15;1.40;;;;;;;30.67;27.08;149818.05;1775063;80;21016;-54
2022/06/04 07:31:47;;;;;;;3.70;1.15;;;;;;;31.56;26.16;150038.28;1792746;80;21509;-55
2022/06/04 07:34:14;;;;;;;3.60;1.02;;;;;;;31.81;25.39;150099.39;1793507;80;21501;-55
2022/06/04 07:36:44;;;;;;;3.75;1.07;;;;;;;30.92;25.84;149880.44;1793142;80;21039;-55
2022/06/04 07:39:15;;;;;;;2.40;1.17;;;;;;;30.14;26.76;149684.47;1793591;80;20992;-55
2022/06/04 07:41:46;;;;;;;2.62;1.32;;;;;;;30.64;26.29;149810.44;1793349;80;21020;-56
2022/06/04 07:44:16;;;;;;;2.47;1.30;;;;;;;31.02;25.60;149904.63;1793552;80;21004;-55
2022/06/04 07:46:45;;;;;;;5.08;1.60;;;;;;;30.98;26.09;149893.16;1760244;80;21573;-54
2022/06/04 07:49:13;;;;;;;2.95;1.10;;;;;;;32.07;24.93;150164.34;1760404;81;20985;-55
2022/06/04 07:51:42;;;;;;;3.25;1.37;;;;;;;32.17;24.42;150189.81;1760588;81;21037;-55
2022/06/04 07:54:10;;;;;;;2.60;1.00;;;;;;;32.63;24.04;150304.45;1760656;81;21014;-55
2022/06/04 07:56:38;;;;;;;2.05;1.10;;;;;;;31.97;23.56;150141.41;1760359;81;21052;-55
2022/06/04 07:59:08;;;;;;;2.05;1.25;;;;;;;31.49;24.47;150020.45;1770575;80;21569;-55
2022/06/04 08:01:36;;;;;;;2.30;1.02;;;;;;;31.40;24.58;149998.84;1793682;80;21047;-55
2022/06/04 08:04:03;;;;;;;1.70;0.90;;;;;;;32.01;24.49;150150.36;1793188;80;21067;-55
2022/06/04 08:06:31;;;;;;;2.05;1.00;;;;;;;32.59;23.13;150295.56;1793453;80;21043;-56
2022/06/04 08:08:59;;;;;;;4.80;1.20;;;;;;;32.29;23.84;150219.06;1776786;80;21075;-56
2022/06/04 08:11:32;;;;;;;2.33;1.25;;;;;;;32.06;23.67;150161.78;1794409;80;21659;-55
2022/06/04 08:14:19;;;;;;;1.52;1.17;;;;;;;31.54;24.28;150034.44;1788146;80;21045;-55
2022/06/04 08:16:55;;;;;;;1.70;0.90;;;;;;;31.63;24.20;150056.11;1755985;81;21030;-55
2022/06/04 08:19:24;;;;;;;2.20;1.10;;;;;;;31.18;24.59;149944.06;1765342;80;21008;-55
2022/06/04 08:21:52;;;;;;;2.55;1.22;;;;;;;30.64;24.98;149809.17;1793478;80;21478;-55
2022/06/04 08:24:22;;;;;;;2.08;0.95;;;;;;;30.50;25.20;149776.06;1792788;80;21051;-55
2022/06/04 08:26:56;;;;;;;2.62;1.00;;;;;;;31.03;24.82;149905.88;1793074;80;21041;-55
2022/06/04 08:29:21;;;;;;;2.33;1.35;;;;;;;30.83;24.40;149857.53;1793260;80;21035;-55
2022/06/04 08:31:48;;;;;;;2.12;1.05;;;;;;;29.94;25.71;149634.87;1796400;79;21023;-54
2022/06/04 08:34:15;;;;;;;5.03;1.15;;;;;;;29.63;25.89;149559.81;1796374;80;21066;-54
2022/06/04 08:36:43;;;;;;;2.85;1.35;;;;;;;29.47;26.06;149519.14;1792317;80;21493;-56
2022/06/04 08:39:11;;;;;;;2.25;1.10;;;;;;;29.59;26.19;149549.66;1788018;79;21062;-56
2022/06/04 08:41:59;;;;;;;2.70;1.35;;;;;;;30.43;25.57;149758.28;1788273;80;21509;-55
2022/06/04 08:44:46;;;;;;;2.20;1.35;;;;;;;31.57;23.81;150042.11;1788068;80;20999;-55
2022/06/04 08:47:23;;;;;;;2.65;1.17;;;;;;;30.27;25.04;149718.83;1790433;80;21078;-55
2022/06/04 08:50:18;;;;;;;3.02;1.30;;;;;;;29.40;26.33;149501.34;1785354;80;21036;-55
2022/06/04 08:53:01;;;;;;;2.15;1.10;;;;;;;29.58;26.13;149545.83;1793024;80;21042;-53
2022/06/04 08:59:11;;;;;;;3.12;1.70;;;;;;;30.79;25.23;149847.33;1775476;80;20988;-55
2022/06/04 09:01:46;;;;;;;4.12;1.62;;;;;;;31.46;23.82;150012.83;1788065;80;21018;-55
2022/06/04 09:04:38;;;;;;;2.25;1.30;;;;;;;31.76;23.83;150089.19;1787541;80;21008;-54
2022/06/04 09:07:23;;;;;;;2.42;1.22;;;;;;;31.71;23.78;150076.45;1789397;80;21034;-55
2022/06/04 09:10:07;;;;;;;2.50;1.50;;;;;;;31.31;23.60;149977.13;1751994;80;21036;-55
2022/06/04 09:12:49;;;;;;;3.52;1.60;;;;;;;30.48;24.44;149771.00;1769173;80;21106;-54
2022/06/04 09:15:29;;;;;;;2.90;1.50;;;;;;;29.09;25.79;149425.09;1798958;80;21509;-59
2022/06/04 09:17:59;;;;;;;;;;;;;;;28.72;26.36;149333.53;1801650;80;21027;-59
2022/06/04 09:20:34;;;;;;;3.72;1.30;;;;;;;28.99;26.58;149399.63;1798102;80;20135;-59
2022/06/04 09:23:09;;;;;;;2.65;1.37;;;;;;;29.09;26.05;149425.09;1796764;80;21575;-59
2022/06/04 09:25:47;;;;;;;3.60;1.57;;;;;;;28.84;26.38;149361.50;1768806;80;21459;-59
2022/06/04 09:28:51;;;;;;;4.40;1.72;;;;;;;28.62;26.90;149308.13;1784376;79;21071;-60
2022/06/04 09:31:23;;;;;;;2.90;1.60;;;;;;;28.29;27.75;149226.81;1778951;80;21044;-60
2022/06/04 09:33:57;;;;;;;2.92;1.80;;;;;;;27.55;28.96;149041.33;1785001;79;20989;-59
2022/06/04 09:36:33;;;;;;;3.42;2.00;;;;;;;26.94;29.84;148891.48;1785212;80;21008;-58
2022/06/04 09:39:27;;;;;;;4.55;2.00;;;;;;;26.29;30.71;148729.06;1759712;80;21470;-59
2022/06/04 09:41:58;;;;;;;4.33;2.22;;;;;;;25.28;32.92;148480.41;1790579;79;20995;-59
2022/06/04 09:44:28;;;;;;;4.40;2.25;;;;;;;24.74;33.86;148346.02;1799213;80;21015;-59
2022/06/04 09:47:12;;;;;;;5.00;2.22;;;;;;;24.66;33.20;148325.75;1799129;80;21026;-60
2022/06/04 09:49:57;;;;;;;5.12;2.37;;;;;;;24.59;33.59;148308.00;1798400;80;21592;-59
2022/06/04 09:52:39;;;;;;;3.30;2.10;;;;;;;24.74;34.19;148346.02;1798921;80;21031;-59
2022/06/04 09:55:20;;;;;;;3.33;2.02;;;;;;;24.33;34.40;148243.34;1770519;80;21019;-60
2022/06/04 09:58:05;;;;;;;3.30;2.20;;;;;;;23.93;34.79;148145.78;1799463;80;21007;-60
2022/06/04 10:00:36;;;;;;;3.60;2.12;;;;;;;23.87;34.58;148129.34;1799255;80;21508;-60
2022/06/04 10:03:16;;;;;;;3.20;2.17;;;;;;;23.96;34.15;148152.11;1799077;80;21031;-60
2022/06/04 10:05:58;;;;;;;5.57;2.50;;;;;;;24.15;33.93;148199.00;1799232;80;21035;-59
2022/06/04 10:08:29;;;;;;;5.47;2.02;;;;;;;24.37;33.80;148253.45;1797889;79;21030;-60
2022/06/04 10:11:05;;;;;;;4.67;2.22;;;;;;;24.58;33.74;148305.48;1788931;80;21074;-59
2022/06/04 10:13:43;;;;;;;4.85;1.82;;;;;;;24.72;33.00;148340.94;1788133;79;21081;-60
2022/06/04 10:16:46;;;;;;;7.97;2.50;;;;;;;24.73;33.63;148343.50;1788225;80;21023;-59
2022/06/04 10:19:20;;;;;;;6.03;2.77;;;;;;;24.55;33.63;148297.84;1790021;80;21114;-59
2022/06/04 10:22:05;;;;;;;4.12;2.00;;;;;;;24.33;34.80;148243.34;1793432;80;21080;-59
2022/06/04 10:24:36;;;;;;;5.10;2.12;;;;;;;24.22;35.92;148216.70;1762236;81;21529;-59
2022/06/04 10:27:27;;;;;;;3.83;2.22;;;;;;;24.04;35.57;148172.38;1761877;81;21082;-60
2022/06/04 10:30:26;;;;;;;4.47;2.45;;;;;;;23.65;35.33;148074.81;1776401;80;21003;-60
2022/06/04 10:33:14;;;;;;;3.27;2.10;;;;;;;23.33;36.26;147997.59;1788674;80;21010;-59
2022/06/04 10:36:04;;;;;;;4.85;2.62;;;;;;;23.25;36.25;147976.03;1789970;80;21042;-59
2022/06/04 10:38:53;;;;;;;5.60;2.70;;;;;;;23.21;36.60;147967.19;1776593;80;21064;-59
2022/06/04 10:42:02;;;;;;;5.17;2.42;;;;;;;23.34;36.40;148000.09;1796035;80;20994;-59
2022/06/04 10:44:40;;;;;;;8.23;3.22;;;;;;;23.44;36.10;148022.91;1747928;81;21521;-59
2022/06/04 10:47:15;;;;;;;4.22;2.50;;;;;;;23.73;36.57;148095.13;1777271;79;21532;-58
2022/06/04 10:50:16;;;;;;;4.65;2.75;;;;;;;24.15;35.87;148199.00;1787883;80;21060;-59
2022/06/04 10:52:55;;;;;;;5.00;2.83;;;;;;;24.41;34.95;148263.61;1791678;80;21486;-60
2022/06/04 10:55:33;;;;;;;4.97;3.00;;;;;;;24.24;34.99;148221.78;1773440;80;21098;-61
2022/06/04 10:58:08;;;;;;;7.87;3.17;;;;;;;24.04;34.99;148173.67;1782888;79;21708;-59
2022/06/04 11:00:41;;;;;;;5.92;3.72;;;;;;;24.04;35.14;148173.67;1740454;80;21043;-59
2022/06/04 11:03:33;;;;;;;3.98;2.85;;;;;;;24.11;34.92;148188.84;1777942;80;21535;-59
2022/06/04 11:06:14;;;;;;;4.97;2.87;;;;;;;24.25;34.69;148224.34;1766903;80;21061;-59
2022/06/04 11:08:51;;;;;;;5.12;2.85;;;;;;;24.41;34.19;148263.61;1788396;79;21058;-60
2022/06/04 11:11:40;;;;;;;3.62;2.60;;;;;;;24.52;34.30;148290.25;1783907;79;21141;-60
2022/06/04 11:14:35;;;;;;;3.77;2.50;;;;;;;24.75;33.90;148347.28;1767349;79;21104;-56
2022/06/04 11:17:17;;;;;;;4.67;2.62;;;;;;;25.01;33.69;148413.20;1783853;80;21117;-57
2022/06/04 11:20:02;;;;;;;5.10;2.47;;;;;;;25.33;34.07;148493.09;1778485;80;21032;-57
2022/06/04 11:22:46;;;;;;;4.00;2.25;;;;;;;25.84;33.22;148618.62;1787510;79;21039;-57
2022/06/04 11:25:36;;;;;;;4.12;2.47;;;;;;;26.23;32.02;148713.80;1777971;79;21037;-56
2022/06/04 11:28:08;;;;;;;5.10;2.33;;;;;;;25.95;32.70;148645.30;1717742;83;21034;-58
2022/06/04 11:30:47;;;;;;;6.92;2.60;;;;;;;25.73;32.94;148592.00;1683027;83;21152;-57
2022/06/04 11:33:40;;;;;;;5.45;2.22;;;;;;;25.57;33.13;148551.45;1721110;83;21260;-58
2022/06/04 11:36:24;;;;;;;3.22;2.08;;;;;;;25.30;34.00;148485.50;1715338;83;21585;-59
2022/06/04 11:39:08;;;;;;;4.25;2.27;;;;;;;25.05;33.76;148422.06;1718031;83;21040;-58
2022/06/04 11:41:56;;;;;;;4.05;2.15;;;;;;;24.73;34.24;148343.50;1735777;81;21041;-57
2022/06/04 11:44:58;;;;;;;6.30;2.62;;;;;;;24.57;34.95;148302.92;1726466;83;21560;-56
2022/06/04 11:47:49;;;;;;;3.65;2.40;;;;;;;24.50;34.84;148286.48;1738502;81;21048;-57
2022/06/04 11:50:30;;;;;;;5.67;2.17;;;;;;;24.35;35.13;148248.37;1683997;81;21510;-60
2022/06/04 11:53:11;;;;;;;4.50;2.50;;;;;;;24.43;35.14;148269.94;1691028;83;21538;-57
2022/06/04 11:55:55;;;;;;;4.72;2.37;;;;;;;24.45;34.80;148273.77;1733850;82;21080;-56
2022/06/04 11:58:56;;;;;;;3.77;2.62;;;;;;;24.47;34.80;148278.84;1730909;82;21054;-57
2022/06/04 12:01:41;;;;;;;6.37;2.92;;;;;;;24.52;34.93;148291.52;1733305;82;21488;-57
2022/06/04 12:04:38;;;;;;;4.78;2.47;;;;;;;24.77;34.85;148352.36;1735761;82;21040;-57
2022/06/04 12:07:20;;;;;;;4.75;2.33;;;;;;;25.29;34.42;148482.97;1732362;82;21035;-57
2022/06/04 12:10:09;;;;;;;2.93;2.10;;;;;;;25.88;34.06;148627.58;1730402;82;21059;-56
2022/06/04 12:13:01;;;;;;;5.58;2.25;;;;;;;26.24;33.50;148716.38;1722821;82;21230;-58